Terminal Aerodrome Forecast
Issued by NWS

Current Version | Previous Version | Text Only | Print | Product List | Glossary On
Versions: 1 2 3 4 5 6 7 8 9 10 11 12 13
000
FTUS44 KTSA 062300 RRA
TAFFYV
TAF
KFYV 062343Z 0700/0724 16008KT P6SM SCT040 BKN250
     FM071400 18013G21KT P6SM BKN030 PROB30 0714/0720 5SM -TSRA
      BKN020CB
     FM072000 18013G21KT P6SM BKN035=

USA.gov is the U.S. government's official web portal to all federal, state and local government web resources and services.